Time;durP1;ratioP1;P1;durP2;ratioP2;P2;SDS_P1;SDS_P2;PMS_P1;PMS_P2;Temp;Humidity;BMP_temperature;BMP_pressure;BME280_temperature;BME280_humidity;BME280_pressure;Samples;Min_cycle;Max_cycle;Signal;HPM_P1;HPM_P2
2024/02/03 00:00:43;;;;;;;55.65;37.95;;;19.20;76.00;;;;;;5051540;28;20025;-63
2024/02/03 00:03:09;;;;;;;53.83;39.17;;;19.20;76.00;;;;;;5051575;28;20021;-65
2024/02/03 00:05:34;;;;;;;45.47;32.22;;;19.20;75.90;;;;;;5051885;28;20025;-65
2024/02/03 00:08:00;;;;;;;48.35;34.97;;;19.20;75.90;;;;;;5051412;28;20506;-65
2024/02/03 00:10:26;;;;;;;45.47;31.00;;;19.10;75.80;;;;;;5051430;28;20094;-65
2024/02/03 00:12:52;;;;;;;50.25;35.72;;;19.20;76.10;;;;;;5051572;28;20029;-65
2024/02/03 00:15:17;;;;;;;43.92;31.23;;;19.20;76.00;;;;;;5051597;28;20021;-65
2024/02/03 00:17:43;;;;;;;46.65;32.70;;;19.20;75.90;;;;;;5051346;28;20021;-65
2024/02/03 00:20:10;;;;;;;51.17;36.47;;;19.20;75.90;;;;;;5051009;28;20040;-65
2024/02/03 00:22:35;;;;;;;45.38;34.40;;;19.20;75.90;;;;;;5051616;28;20095;-64
2024/02/03 00:25:01;;;;;;;43.50;32.08;;;19.20;76.10;;;;;;5051158;28;20037;-64
2024/02/03 00:27:27;;;;;;;46.00;31.75;;;19.20;76.20;;;;;;5051577;28;20345;-64
2024/02/03 00:29:52;;;;;;;42.58;30.10;;;19.20;76.10;;;;;;5051079;28;20044;-63
2024/02/03 00:32:18;;;;;;;44.47;31.42;;;19.20;76.10;;;;;;5050810;28;20476;-63
2024/02/03 00:34:44;;;;;;;46.10;33.55;;;19.20;76.20;;;;;;5051332;28;20021;-64
2024/02/03 00:37:10;;;;;;;42.33;29.95;;;19.20;76.30;;;;;;5051099;28;20033;-64
2024/02/03 00:39:40;;;;;;;40.38;30.02;;;19.20;76.40;;;;;;5051140;28;20390;-63
2024/02/03 00:42:06;;;;;;;40.08;29.15;;;19.20;76.30;;;;;;5050500;28;20024;-63
2024/02/03 00:44:32;;;;;;;43.85;29.88;;;19.20;76.20;;;;;;5051188;28;20017;-64
2024/02/03 00:46:57;;;;;;;40.35;28.70;;;19.20;76.30;;;;;;5050242;28;20028;-64
2024/02/03 00:49:23;;;;;;;39.55;28.55;;;19.20;76.20;;;;;;5051156;28;20140;-64
2024/02/03 00:51:49;;;;;;;38.70;29.35;;;19.20;76.20;;;;;;5045655;28;20037;-64
2024/02/03 00:54:14;;;;;;;40.42;29.20;;;19.20;76.20;;;;;;5051034;28;20270;-63
2024/02/03 00:56:40;;;;;;;39.78;28.35;;;19.20;76.20;;;;;;5050889;28;20033;-64
2024/02/03 00:59:06;;;;;;;42.88;30.58;;;19.20;76.20;;;;;;5050594;28;20551;-65
2024/02/03 01:01:31;;;;;;;41.67;28.77;;;19.20;76.30;;;;;;5050154;28;20485;-65
2024/02/03 01:03:57;;;;;;;35.38;25.90;;;19.20;76.20;;;;;;5050937;28;20029;-65
2024/02/03 01:06:23;;;;;;;33.45;24.80;;;19.20;76.20;;;;;;5050649;28;20047;-65
2024/02/03 01:08:48;;;;;;;36.95;24.70;;;19.30;76.20;;;;;;5050765;28;20492;-64
2024/02/03 01:11:14;;;;;;;32.28;22.60;;;19.20;76.30;;;;;;5049968;28;20664;-64
2024/02/03 01:13:40;;;;;;;31.02;21.92;;;19.20;76.30;;;;;;5050568;28;20033;-64
2024/02/03 01:16:06;;;;;;;27.77;20.15;;;19.20;76.30;;;;;;5050504;28;20028;-64
2024/02/03 01:18:32;;;;;;;36.65;24.05;;;19.20;76.30;;;;;;5050426;28;20025;-64
2024/02/03 01:20:57;;;;;;;33.33;22.55;;;19.30;76.30;;;;;;5049435;28;20123;-65
2024/02/03 01:23:23;;;;;;;36.78;21.73;;;19.30;76.40;;;;;;5050561;28;20063;-64
2024/02/03 01:25:49;;;;;;;34.60;23.30;;;19.20;76.50;;;;;;5050279;28;20028;-64
2024/02/03 01:28:15;;;;;;;34.00;19.83;;;19.20;76.60;;;;;;5050243;28;20021;-64
2024/02/03 01:30:41;;;;;;;33.28;21.98;;;19.20;76.80;;;;;;5049284;28;20116;-64
2024/02/03 01:33:07;;;;;;;32.88;21.75;;;19.30;76.90;;;;;;5050035;28;20150;-64
2024/02/03 01:35:33;;;;;;;25.55;18.70;;;19.20;77.00;;;;;;5050233;28;20036;-63
2024/02/03 01:37:58;;;;;;;22.85;16.73;;;19.20;76.90;;;;;;5049829;28;20444;-64
2024/02/03 01:40:26;;;;;;;30.48;17.58;;;19.20;77.10;;;;;;5049446;28;20021;-64
2024/02/03 01:43:03;;;;;;;32.47;17.45;;;19.30;77.10;;;;;;5049974;28;20444;-65
2024/02/03 01:45:29;;;;;;;25.30;16.05;;;19.30;77.30;;;;;;5050353;28;20365;-65
2024/02/03 01:47:55;;;;;;;26.02;18.08;;;19.30;77.30;;;;;;5049894;28;20021;-65
2024/02/03 01:50:22;;;;;;;24.75;17.17;;;19.20;77.40;;;;;;5049217;28;20068;-65
2024/02/03 01:52:49;;;;;;;25.35;17.33;;;19.20;77.50;;;;;;5044970;28;20024;-64
2024/02/03 01:55:16;;;;;;;26.52;17.17;;;19.20;77.50;;;;;;5049545;28;20017;-65
2024/02/03 01:57:44;;;;;;;23.42;16.30;;;19.20;77.50;;;;;;5048703;28;20025;-64
2024/02/03 02:00:11;;;;;;;26.42;16.73;;;19.30;77.60;;;;;;5048912;28;20233;-65
2024/02/03 02:02:36;;;;;;;24.45;16.52;;;19.30;77.70;;;;;;5049838;28;20400;-64
2024/02/03 02:05:03;;;;;;;26.92;16.33;;;19.20;77.70;;;;;;5041203;28;20013;-66
2024/02/03 02:07:28;;;;;;;20.27;14.07;;;19.30;77.80;;;;;;5049488;28;20025;-66
2024/02/03 02:09:54;;;;;;;22.55;15.65;;;19.30;77.80;;;;;;5049067;28;20025;-66
2024/02/03 02:12:21;;;;;;;18.95;13.45;;;19.30;77.70;;;;;;5048722;28;20055;-66
2024/02/03 02:14:47;;;;;;;29.23;15.43;;;19.30;77.70;;;;;;5049680;28;20048;-65
2024/02/03 02:17:13;;;;;;;30.70;16.13;;;19.20;77.80;;;;;;5049162;28;20108;-65
2024/02/03 02:19:39;;;;;;;20.02;14.43;;;19.20;77.80;;;;;;5049179;28;20105;-64
2024/02/03 02:22:04;;;;;;;17.83;12.60;;;19.30;77.80;;;;;;5048747;28;20017;-65
2024/02/03 02:24:30;;;;;;;18.88;12.88;;;19.30;77.80;;;;;;5049329;28;20032;-65
2024/02/03 02:26:56;;;;;;;18.80;13.52;;;19.20;77.80;;;;;;5048986;28;20029;-65
2024/02/03 02:29:21;;;;;;;19.20;13.38;;;19.20;77.80;;;;;;5049316;28;20123;-65
2024/02/03 02:31:47;;;;;;;21.25;13.55;;;19.30;77.80;;;;;;5048493;28;20124;-65
2024/02/03 02:34:13;;;;;;;20.20;12.68;;;19.30;77.90;;;;;;5049243;28;20037;-65
2024/02/03 02:36:39;;;;;;;20.85;13.30;;;19.30;77.90;;;;;;5049129;28;20068;-64
2024/02/03 02:39:05;;;;;;;22.70;13.48;;;19.20;77.90;;;;;;5048911;28;20049;-64
2024/02/03 02:41:30;;;;;;;16.42;11.90;;;19.30;77.90;;;;;;5048448;28;20124;-64
2024/02/03 02:43:56;;;;;;;27.05;13.88;;;19.30;77.90;;;;;;5048999;28;20135;-63
2024/02/03 02:46:27;;;;;;;17.38;12.05;;;19.30;78.00;;;;;;5049058;28;20096;-64
2024/02/03 02:48:53;;;;;;;16.73;11.93;;;19.30;77.90;;;;;;5049317;28;20063;-63
2024/02/03 02:51:19;;;;;;;15.50;10.98;;;19.30;77.80;;;;;;5046266;28;20033;-64
2024/02/03 02:53:44;;;;;;;17.27;10.43;;;19.30;77.80;;;;;;5046476;28;20025;-64
2024/02/03 02:56:11;;;;;;;16.23;10.55;;;19.20;77.90;;;;;;5049363;28;20025;-65
2024/02/03 02:58:37;;;;;;;14.55;8.85;;;19.20;78.00;;;;;;5049058;28;20029;-63
2024/02/03 03:01:03;;;;;;;18.02;10.50;;;19.20;78.10;;;;;;5051358;28;20096;-65
2024/02/03 03:03:29;;;;;;;15.73;10.80;;;19.20;78.10;;;;;;5057038;28;20021;-65
2024/02/03 03:05:57;;;;;;;15.20;10.30;;;19.30;78.10;;;;;;5055323;28;20057;-65
2024/02/03 03:08:23;;;;;;;13.68;10.13;;;19.20;78.20;;;;;;5056829;28;20055;-64
2024/02/03 03:10:48;;;;;;;19.85;11.27;;;19.20;78.30;;;;;;5061459;28;20105;-64
2024/02/03 03:13:14;;;;;;;14.80;10.68;;;19.30;78.40;;;;;;5063797;28;20032;-65
2024/02/03 03:15:39;;;;;;;16.75;10.02;;;19.30;78.20;;;;;;5056355;28;20121;-64
2024/02/03 03:18:06;;;;;;;18.00;9.45;;;19.30;78.40;;;;;;5052494;28;20093;-64
2024/02/03 03:20:32;;;;;;;12.82;8.10;;;19.30;78.30;;;;;;5052080;28;20135;-64
2024/02/03 03:22:57;;;;;;;13.75;8.38;;;19.30;78.30;;;;;;5052451;28;20056;-65
2024/02/03 03:25:23;;;;;;;11.88;7.35;;;19.30;78.40;;;;;;5052805;28;20112;-65
2024/02/03 03:27:49;;;;;;;14.50;7.95;;;19.30;78.40;;;;;;5052641;28;20025;-64
2024/02/03 03:30:14;;;;;;;11.10;7.38;;;19.30;78.50;;;;;;5051732;28;20032;-64
2024/02/03 03:32:41;;;;;;;13.48;7.13;;;19.30;78.50;;;;;;5052375;28;20116;-65
2024/02/03 03:35:07;;;;;;;10.00;6.88;;;19.30;78.50;;;;;;5052370;28;20032;-65
2024/02/03 03:37:33;;;;;;;9.43;6.45;;;19.30;78.50;;;;;;5052338;28;20033;-65
2024/02/03 03:39:58;;;;;;;10.50;7.07;;;19.30;78.60;;;;;;5051848;28;20021;-65
2024/02/03 03:42:25;;;;;;;8.70;6.40;;;19.30;78.60;;;;;;5048990;28;20032;-65
2024/02/03 03:44:51;;;;;;;10.90;6.47;;;19.30;78.70;;;;;;5043438;28;20035;-64
2024/02/03 03:47:17;;;;;;;7.72;6.03;;;19.30;78.70;;;;;;5052398;28;20104;-64
2024/02/03 03:49:42;;;;;;;12.90;8.00;;;19.30;78.70;;;;;;5052167;28;20052;-64
2024/02/03 03:52:08;;;;;;;15.00;7.53;;;19.30;78.90;;;;;;5051526;28;20511;-65
2024/02/03 03:54:34;;;;;;;12.90;7.47;;;19.30;78.80;;;;;;5052103;28;20033;-65
2024/02/03 03:56:59;;;;;;;10.10;6.28;;;19.30;78.60;;;;;;5052179;28;20188;-64
2024/02/03 03:59:25;;;;;;;13.52;6.93;;;19.30;78.60;;;;;;5059890;22;20021;-70
2024/02/03 04:01:50;;;;;;;11.43;7.45;;;19.30;78.50;;;;;;5026179;28;20113;-68
2024/02/03 04:04:17;;;;;;;8.50;6.25;;;19.30;78.50;;;;;;5026306;28;20093;-69
2024/02/03 04:06:43;;;;;;;9.43;6.53;;;19.20;78.50;;;;;;5023622;28;20796;-68
2024/02/03 04:09:10;;;;;;;11.45;6.43;;;19.30;78.40;;;;;;5021109;28;20089;-67
2024/02/03 04:11:37;;;;;;;8.77;5.72;;;19.20;78.40;;;;;;5020006;28;20084;-68
2024/02/03 04:14:03;;;;;;;10.82;6.35;;;19.20;78.40;;;;;;5029543;28;20882;-69
2024/02/03 04:16:28;;;;;;;15.18;6.30;;;19.20;78.30;;;;;;5030405;28;20029;-68
2024/02/03 04:18:54;;;;;;;8.70;6.03;;;19.20;78.30;;;;;;5030186;28;20382;-67
2024/02/03 04:21:20;;;;;;;8.20;5.43;;;19.20;78.30;;;;;;5026520;28;20024;-68
2024/02/03 04:23:46;;;;;;;10.13;6.28;;;19.20;78.20;;;;;;5023711;28;20026;-68
2024/02/03 04:26:11;;;;;;;12.82;6.70;;;19.30;78.20;;;;;;5024136;28;20092;-68
2024/02/03 04:28:37;;;;;;;7.55;5.50;;;19.20;78.20;;;;;;5031940;28;20579;-67
2024/02/03 04:31:05;;;;;;;9.38;6.03;;;19.20;78.10;;;;;;5019856;28;20030;-69
2024/02/03 04:33:31;;;;;;;8.45;5.68;;;19.20;78.10;;;;;;5020797;28;20028;-68
2024/02/03 04:35:57;;;;;;;7.45;5.13;;;19.20;78.20;;;;;;5020992;28;20045;-69
2024/02/03 04:38:22;;;;;;;8.10;5.90;;;19.20;78.10;;;;;;5023850;28;20026;-67
2024/02/03 04:40:48;;;;;;;10.15;5.97;;;19.20;78.10;;;;;;5030013;28;20105;-69
2024/02/03 04:43:14;;;;;;;12.50;6.30;;;19.20;78.20;;;;;;5020476;28;20071;-68
2024/02/03 04:45:39;;;;;;;9.68;5.88;;;19.20;78.20;;;;;;5019312;28;20054;-69
2024/02/03 04:48:06;;;;;;;9.48;5.40;;;19.20;78.20;;;;;;5029877;28;20061;-71
2024/02/03 04:50:33;;;;;;;10.38;5.43;;;19.20;78.20;;;;;;5022894;28;20029;-69
2024/02/03 04:52:58;;;;;;;14.77;6.63;;;19.20;78.10;;;;;;5019033;28;20034;-68
2024/02/03 04:55:24;;;;;;;9.45;6.07;;;19.20;78.20;;;;;;5020340;28;20037;-70
2024/02/03 04:57:50;;;;;;;12.23;6.63;;;19.20;78.10;;;;;;5021081;28;20029;-68
2024/02/03 05:00:17;;;;;;;9.25;6.22;;;19.20;78.10;;;;;;5022505;28;20030;-68
2024/02/03 05:02:42;;;;;;;8.05;5.57;;;19.30;78.00;;;;;;5022612;28;20026;-69
2024/02/03 05:05:08;;;;;;;12.52;5.70;;;19.20;78.00;;;;;;5020089;28;20434;-68
2024/02/03 05:07:34;;;;;;;11.73;5.85;;;19.30;77.90;;;;;;5020249;28;20036;-69
2024/02/03 05:10:00;;;;;;;8.68;5.05;;;19.30;77.80;;;;;;5021920;28;20034;-68
2024/02/03 05:12:25;;;;;;;17.30;6.38;;;19.20;78.00;;;;;;5023429;28;20029;-69
2024/02/03 05:14:51;;;;;;;10.82;5.85;;;19.30;78.00;;;;;;5021180;28;20513;-69
2024/02/03 05:17:17;;;;;;;13.00;5.75;;;19.30;78.00;;;;;;5021054;28;20029;-70
2024/02/03 05:19:42;;;;;;;11.00;5.32;;;19.30;77.90;;;;;;5020581;28;20023;-67
2024/02/03 05:22:08;;;;;;;11.85;6.88;;;19.30;78.00;;;;;;5030260;28;20049;-67
2024/02/03 05:24:33;;;;;;;8.93;5.60;;;19.30;78.00;;;;;;5023881;28;20025;-67
2024/02/03 05:26:59;;;;;;;9.25;5.28;;;19.30;77.80;;;;;;5019824;28;20030;-67
2024/02/03 05:29:25;;;;;;;7.38;5.25;;;19.30;77.70;;;;;;5019390;28;20026;-68
2024/02/03 05:31:50;;;;;;;11.38;5.80;;;19.30;77.60;;;;;;5019862;28;20695;-68
2024/02/03 05:34:16;;;;;;;16.38;5.13;;;19.30;77.50;;;;;;5022982;28;20108;-67
2024/02/03 05:36:42;;;;;;;11.27;5.18;;;19.20;77.50;;;;;;5020694;28;20401;-66
2024/02/03 05:39:08;;;;;;;6.63;4.90;;;19.30;77.50;;;;;;5019512;28;20014;-68
2024/02/03 05:41:33;;;;;;;8.70;4.78;;;19.20;77.40;;;;;;5017554;28;20026;-68
2024/02/03 05:43:59;;;;;;;10.02;4.60;;;19.20;77.40;;;;;;5021511;28;20040;-68
2024/02/03 05:46:25;;;;;;;9.65;4.95;;;19.20;77.30;;;;;;5022673;28;20096;-68
2024/02/03 05:48:50;;;;;;;6.80;4.78;;;19.20;77.20;;;;;;5019719;28;20121;-70
2024/02/03 05:51:17;;;;;;;7.30;5.03;;;19.20;77.20;;;;;;5017243;28;20104;-70
2024/02/03 05:53:43;;;;;;;5.93;4.30;;;19.20;77.20;;;;;;5019173;28;20105;-68
2024/02/03 05:56:09;;;;;;;8.85;5.10;;;19.20;77.20;;;;;;5022554;28;20481;-70
2024/02/03 05:58:35;;;;;;;9.50;4.55;;;19.20;77.20;;;;;;5022487;28;20025;-69
2024/02/03 06:01:00;;;;;;;4.90;3.95;;;19.20;77.20;;;;;;5018038;28;20040;-68
2024/02/03 06:03:26;;;;;;;7.28;4.07;;;19.20;77.30;;;;;;5019301;28;20026;-69
2024/02/03 06:05:52;;;;;;;4.88;3.95;;;19.20;77.40;;;;;;5020111;28;20504;-67
2024/02/03 06:08:17;;;;;;;6.00;4.03;;;19.20;77.30;;;;;;5022269;28;20022;-70
2024/02/03 06:10:43;;;;;;;7.65;4.10;;;19.20;77.30;;;;;;5019383;28;20029;-69
2024/02/03 06:13:09;;;;;;;5.38;3.53;;;19.20;77.40;;;;;;5017942;28;20021;-68
2024/02/03 06:15:34;;;;;;;9.80;4.22;;;19.20;77.40;;;;;;5018854;28;20469;-70
2024/02/03 06:18:00;;;;;;;7.25;4.30;;;19.20;77.30;;;;;;5021061;28;20026;-68
2024/02/03 06:20:25;;;;;;;6.32;4.10;;;19.20;77.40;;;;;;5021527;28;20030;-69
2024/02/03 06:22:51;;;;;;;6.13;4.22;;;19.30;77.40;;;;;;5025385;28;20021;-70
2024/02/03 06:25:17;;;;;;;5.15;3.60;;;19.20;77.40;;;;;;5017452;28;20026;-69
2024/02/03 06:27:42;;;;;;;8.52;3.97;;;19.20;77.40;;;;;;5018704;28;20587;-70
2024/02/03 06:30:08;;;;;;;8.23;3.95;;;19.30;77.50;;;;;;5021193;28;20022;-68
2024/02/03 06:32:34;;;;;;;8.38;3.88;;;19.20;77.30;;;;;;5022186;28;20030;-69
2024/02/03 06:34:59;;;;;;;8.35;3.97;;;19.30;77.40;;;;;;5027222;28;20417;-69
2024/02/03 06:37:25;;;;;;;6.88;4.05;;;19.20;77.40;;;;;;5024844;28;20025;-68
2024/02/03 06:39:50;;;;;;;12.27;4.43;;;19.30;77.50;;;;;;5021624;28;20076;-67
2024/02/03 06:42:16;;;;;;;5.32;3.45;;;19.30;77.60;;;;;;5029657;28;20028;-68
2024/02/03 06:44:42;;;;;;;8.85;4.50;;;19.30;77.40;;;;;;5026785;28;20052;-67
2024/02/03 06:47:08;;;;;;;6.65;4.18;;;19.30;77.50;;;;;;5027409;28;20477;-71
2024/02/03 06:49:33;;;;;;;7.68;3.72;;;19.30;77.50;;;;;;5029122;28;20026;-71
2024/02/03 06:51:59;;;;;;;7.60;3.70;;;19.30;77.40;;;;;;5026631;28;20080;-69
2024/02/03 06:54:24;;;;;;;6.18;3.25;;;19.30;77.20;;;;;;5028566;28;20030;-70
2024/02/03 06:56:50;;;;;;;8.77;3.67;;;19.30;77.00;;;;;;5026668;28;20032;-70
2024/02/03 06:59:16;;;;;;;7.30;3.25;;;19.30;76.90;;;;;;5024904;28;20014;-71
2024/02/03 07:01:41;;;;;;;8.32;3.58;;;19.30;76.80;;;;;;5032315;28;20555;-69
2024/02/03 07:04:07;;;;;;;14.98;3.67;;;19.30;77.20;;;;;;5028331;28;20040;-67
2024/02/03 07:06:32;;;;;;;27.05;4.80;;;19.30;77.10;;;;;;5028315;28;20029;-70
2024/02/03 07:08:58;;;;;;;23.20;5.00;;;19.30;77.40;;;;;;5025439;28;20528;-69
2024/02/03 07:11:24;;;;;;;20.15;3.95;;;19.30;77.70;;;;;;5023455;28;20040;-71
2024/02/03 07:13:49;;;;;;;20.08;5.85;;;19.30;77.20;;;;;;5034136;28;20087;-69
2024/02/03 07:16:15;;;;;;;16.73;4.60;;;19.30;77.00;;;;;;5028149;28;20032;-68
2024/02/03 07:18:40;;;;;;;19.05;5.50;;;19.30;76.70;;;;;;5027469;28;20026;-67
2024/02/03 07:21:06;;;;;;;16.33;5.07;;;19.30;76.50;;;;;;5033544;28;20022;-70
2024/02/03 07:23:34;;;;;;;15.55;4.25;;;19.30;76.50;;;;;;5029165;28;20029;-69
2024/02/03 07:26:00;;;;;;;15.50;3.83;;;19.30;76.30;;;;;;5026992;28;20018;-69
2024/02/03 07:28:26;;;;;;;16.13;4.85;;;19.20;76.00;;;;;;5028169;28;20035;-69
2024/02/03 07:30:51;;;;;;;20.25;4.95;;;19.20;76.10;;;;;;5025641;28;20025;-70
2024/02/03 07:33:17;;;;;;;23.40;6.38;;;19.30;77.90;;;;;;5024761;28;20067;-69
2024/02/03 07:35:42;;;;;;;23.92;5.47;;;19.30;77.80;;;;;;5024498;28;20513;-68
2024/02/03 07:38:08;;;;;;;28.30;5.68;;;19.30;78.60;;;;;;5027978;28;20030;-70
2024/02/03 07:40:33;;;;;;;25.27;5.80;;;19.30;78.60;;;;;;5027875;28;20028;-68
2024/02/03 07:42:59;;;;;;;18.02;4.63;;;19.30;78.60;;;;;;5028259;28;20052;-69
2024/02/03 07:45:25;;;;;;;14.98;4.28;;;19.30;78.90;;;;;;5035210;28;20026;-67
2024/02/03 07:47:50;;;;;;;9.40;3.15;;;19.30;78.60;;;;;;5025373;28;20030;-70
2024/02/03 07:50:16;;;;;;;15.18;3.60;;;19.30;78.50;;;;;;5027163;28;20021;-67
2024/02/03 07:52:41;;;;;;;16.50;4.30;;;19.30;78.30;;;;;;5027287;28;20079;-66
2024/02/03 07:55:07;;;;;;;26.20;5.15;;;19.30;78.00;;;;;;5021981;28;20397;-68
2024/02/03 07:57:33;;;;;;;14.68;4.60;;;19.30;78.10;;;;;;5028730;28;20447;-67
2024/02/03 07:59:59;;;;;;;17.40;5.43;;;19.30;78.00;;;;;;5022591;28;20041;-70
2024/02/03 08:02:24;;;;;;;21.77;5.75;;;19.30;77.90;;;;;;5023951;28;20025;-65
2024/02/03 08:04:50;;;;;;;21.08;5.68;;;19.30;77.90;;;;;;5023048;28;20074;-66
2024/02/03 08:07:15;;;;;;;22.40;6.97;;;19.30;78.10;;;;;;5021202;28;20044;-67
2024/02/03 08:09:41;;;;;;;21.55;5.97;;;19.30;78.40;;;;;;5026064;28;20063;-70
2024/02/03 08:12:07;;;;;;;19.38;5.40;;;19.30;78.60;;;;;;5029249;28;20481;-67
2024/02/03 08:14:33;;;;;;;14.07;4.95;;;19.30;78.80;;;;;;5029183;28;20481;-66
2024/02/03 08:16:58;;;;;;;16.20;4.78;;;19.30;78.80;;;;;;5021424;28;20055;-66
2024/02/03 08:19:24;;;;;;;9.93;4.45;;;19.30;78.80;;;;;;5023291;28;20018;-67
2024/02/03 08:21:49;;;;;;;19.40;4.30;;;19.30;78.80;;;;;;5021232;28;20105;-70
2024/02/03 08:24:15;;;;;;;11.23;4.60;;;19.30;78.60;;;;;;5024234;28;20496;-66
2024/02/03 08:26:41;;;;;;;10.32;4.60;;;19.30;78.70;;;;;;5023760;28;20025;-66
2024/02/03 08:29:06;;;;;;;14.15;4.20;;;19.30;78.70;;;;;;5020575;28;20026;-67
2024/02/03 08:31:32;;;;;;;12.43;4.38;;;19.30;78.60;;;;;;5020192;28;20481;-67
2024/02/03 08:33:57;;;;;;;11.75;4.57;;;19.30;78.50;;;;;;5020556;28;20036;-67
2024/02/03 08:36:23;;;;;;;9.05;4.05;;;19.20;78.40;;;;;;5031604;28;20659;-66
2024/02/03 08:38:49;;;;;;;10.60;4.45;;;19.30;78.30;;;;;;5022547;28;20411;-67
2024/02/03 08:41:15;;;;;;;12.25;3.88;;;19.30;78.20;;;;;;5019744;28;20014;-67
2024/02/03 08:43:41;;;;;;;8.40;3.85;;;19.20;78.50;;;;;;5020331;28;20025;-67
2024/02/03 08:46:08;;;;;;;13.75;3.83;;;19.30;78.80;;;;;;5023772;28;20028;-66
2024/02/03 08:48:33;;;;;;;6.47;3.35;;;19.30;79.00;;;;;;5023920;28;20033;-66
2024/02/03 08:50:59;;;;;;;8.48;3.80;;;19.30;79.00;;;;;;5021803;28;20053;-68
2024/02/03 08:53:25;;;;;;;8.27;3.85;;;19.30;79.00;;;;;;5025348;28;20053;-64
2024/02/03 08:55:50;;;;;;;10.15;3.97;;;19.30;79.00;;;;;;5021149;28;20096;-69
2024/02/03 08:58:16;;;;;;;9.18;4.20;;;19.20;78.90;;;;;;5023519;28;20033;-69
2024/02/03 09:00:42;;;;;;;10.30;4.00;;;19.30;78.60;;;;;;5022090;28;20032;-66
2024/02/03 09:03:08;;;;;;;5.78;3.10;;;19.30;78.60;;;;;;5020393;28;20041;-68
2024/02/03 09:05:33;;;;;;;7.40;3.28;;;19.30;78.50;;;;;;5020268;28;20049;-67
2024/02/03 09:07:59;;;;;;;10.68;3.75;;;19.30;78.40;;;;;;5020613;28;20101;-68
2024/02/03 09:10:24;;;;;;;8.93;3.90;;;19.30;78.30;;;;;;5022694;28;20033;-69
2024/02/03 09:12:51;;;;;;;20.25;4.90;;;19.30;78.30;;;;;;5021893;28;20028;-65
2024/02/03 09:15:16;;;;;;;16.42;4.85;;;19.30;78.30;;;;;;5020321;28;20032;-66
2024/02/03 09:17:42;;;;;;;14.25;3.97;;;19.30;78.40;;;;;;5019804;28;20026;-69
2024/02/03 09:20:08;;;;;;;13.57;3.88;;;19.30;78.50;;;;;;5032386;28;20017;-66
2024/02/03 09:22:34;;;;;;;12.27;4.13;;;19.30;78.50;;;;;;5040458;28;20383;-66
2024/02/03 09:24:59;;;;;;;10.88;3.92;;;19.30;78.60;;;;;;5032373;28;20034;-65
2024/02/03 09:27:25;;;;;;;14.00;4.20;;;19.30;78.50;;;;;;5040648;28;20032;-67
2024/02/03 09:29:51;;;;;;;11.90;3.63;;;19.30;78.50;;;;;;5020532;28;20489;-65
2024/02/03 09:32:16;;;;;;;18.15;3.72;;;19.30;78.50;;;;;;5022425;28;20051;-65
2024/02/03 09:34:49;;;;;;;10.15;3.60;;;19.30;78.30;;;;;;5023746;28;20030;-65
2024/02/03 09:37:14;;;;;;;8.40;3.50;;;19.30;78.20;;;;;;5020391;28;20050;-64
2024/02/03 09:39:43;;;;;;;10.02;3.38;;;19.30;78.00;;;;;;5019067;28;20045;-62
2024/02/03 09:42:09;;;;;;;24.35;4.05;;;19.30;77.70;;;;;;5017761;28;20464;-62
2024/02/03 09:44:35;;;;;;;17.35;4.22;;;19.30;77.90;;;;;;5026628;28;20025;-65
2024/02/03 09:47:02;;;;;;;11.70;3.20;;;19.30;77.80;;;;;;5022809;28;20440;-65
2024/02/03 09:49:28;;;;;;;14.52;3.38;;;19.30;77.80;;;;;;5020927;28;20025;-67
2024/02/03 09:51:53;;;;;;;6.45;2.63;;;19.30;77.70;;;;;;5019003;28;20045;-66
2024/02/03 09:54:20;;;;;;;2.05;1.42;;;19.10;69.80;;;;;;5022954;28;20029;-66
2024/02/03 09:56:48;;;;;;;2.08;1.65;;;18.10;61.10;;;;;;5021748;28;20481;-66
2024/02/03 09:59:14;;;;;;;1.55;1.45;;;17.20;60.40;;;;;;5018910;28;20030;-68
2024/02/03 10:01:45;;;;;;;1.63;1.50;;;16.80;60.20;;;;;;5018923;28;20033;-66
2024/02/03 10:04:12;;;;;;;2.58;1.70;;;16.40;59.90;;;;;;5022699;28;20018;-65
2024/02/03 10:06:38;;;;;;;1.65;1.30;;;16.00;60.20;;;;;;5022525;28;20033;-66
2024/02/03 10:09:04;;;;;;;1.42;1.33;;;15.90;60.70;;;;;;5026978;28;20033;-68
2024/02/03 10:11:42;;;;;;;2.33;1.80;;;15.70;61.40;;;;;;5018910;28;20033;-66
2024/02/03 10:14:08;;;;;;;2.95;2.05;;;15.40;60.50;;;;;;5013550;28;20025;-65
2024/02/03 10:16:48;;;;;;;4.30;2.97;;;15.20;61.10;;;;;;5021391;28;20033;-65
2024/02/03 10:19:14;;;;;;;16.27;9.70;;;15.30;63.30;;;;;;5017973;28;20041;-64
2024/02/03 10:21:40;;;;;;;24.52;16.30;;;15.70;67.20;;;;;;5018229;28;20452;-69
2024/02/03 10:24:06;;;;;;;20.73;14.40;;;16.10;69.00;;;;;;5021793;28;20032;-64
2024/02/03 10:26:31;;;;;;;19.67;13.02;;;16.40;69.60;;;;;;5021441;28;20109;-66
2024/02/03 10:28:57;;;;;;;17.67;11.98;;;16.60;69.60;;;;;;5020370;28;20051;-66
2024/02/03 10:31:23;;;;;;;16.52;12.43;;;16.90;69.80;;;;;;5018071;28;20029;-67
2024/02/03 10:33:49;;;;;;;22.85;12.07;;;17.00;70.00;;;;;;5018208;28;20506;-64
2024/02/03 10:36:15;;;;;;;18.60;12.02;;;17.30;70.00;;;;;;5022208;28;20545;-65
2024/02/03 10:38:41;;;;;;;17.52;11.52;;;17.50;70.10;;;;;;5021489;28;20105;-64
2024/02/03 10:41:10;;;;;;;17.98;11.50;;;17.60;70.00;;;;;;5018536;28;20022;-64
2024/02/03 10:43:37;;;;;;;18.35;11.07;;;17.70;70.10;;;;;;5018586;28;20080;-65
2024/02/03 10:46:05;;;;;;;16.40;11.57;;;17.90;69.90;;;;;;5019424;28;20028;-65
2024/02/03 10:48:33;;;;;;;15.98;10.35;;;18.00;69.90;;;;;;5020723;28;20037;-64
2024/02/03 10:51:09;;;;;;;14.23;9.90;;;18.00;69.90;;;;;;5018689;28;20032;-64
2024/02/03 10:53:47;;;;;;;15.38;10.18;;;18.10;69.70;;;;;;5018622;28;20041;-67
2024/02/03 10:56:16;;;;;;;14.35;9.75;;;18.20;69.80;;;;;;5014891;28;20097;-66
2024/02/03 10:58:42;;;;;;;14.43;9.45;;;18.30;69.70;;;;;;5021419;28;20029;-65
2024/02/03 11:01:17;;;;;;;11.05;8.23;;;18.30;69.60;;;;;;5017606;28;20030;-64
2024/02/03 11:03:43;;;;;;;14.88;9.50;;;18.40;69.60;;;;;;5018232;28;20490;-65
2024/02/03 11:06:08;;;;;;;13.05;8.82;;;18.50;69.60;;;;;;5022131;28;20027;-65
2024/02/03 11:08:34;;;;;;;18.40;8.85;;;18.50;69.50;;;;;;5021808;28;20022;-65
2024/02/03 11:11:00;;;;;;;12.10;8.32;;;18.50;69.50;;;;;;5018076;28;20034;-64
2024/02/03 11:13:27;;;;;;;10.93;7.78;;;18.50;69.50;;;;;;5018364;28;20037;-66
2024/02/03 11:16:00;;;;;;;11.93;8.23;;;18.50;69.40;;;;;;5019739;28;20079;-65
2024/02/03 11:18:26;;;;;;;11.93;8.00;;;18.60;69.50;;;;;;5021964;28;20384;-64
2024/02/03 11:21:06;;;;;;;11.73;7.80;;;18.60;69.40;;;;;;5019218;28;20107;-66
2024/02/03 11:23:31;;;;;;;10.38;7.32;;;18.60;69.40;;;;;;5018571;28;20026;-62
2024/02/03 11:25:58;;;;;;;10.85;7.57;;;18.60;69.30;;;;;;5020208;28;20030;-64
2024/02/03 11:28:23;;;;;;;9.52;6.85;;;18.70;69.30;;;;;;5026142;28;20408;-66
2024/02/03 11:30:59;;;;;;;9.07;6.25;;;18.70;69.30;;;;;;5022471;28;20029;-61
2024/02/03 11:33:25;;;;;;;8.75;6.25;;;18.70;69.30;;;;;;5027297;28;20026;-66
2024/02/03 11:36:00;;;;;;;8.45;6.18;;;18.70;69.30;;;;;;5022315;28;20030;-68
2024/02/03 11:38:26;;;;;;;8.38;6.05;;;18.70;69.30;;;;;;5025307;28;20053;-65
2024/02/03 11:40:56;;;;;;;8.40;5.90;;;18.70;69.30;;;;;;5022738;28;20041;-65
2024/02/03 11:43:22;;;;;;;8.07;5.50;;;18.70;69.20;;;;;;5021763;28;20486;-65
2024/02/03 11:45:58;;;;;;;8.73;5.95;;;18.70;69.20;;;;;;5022102;28;20025;-64
2024/02/03 11:48:23;;;;;;;7.80;5.57;;;18.80;69.20;;;;;;5024957;28;20504;-65
2024/02/03 11:50:50;;;;;;;7.32;5.25;;;18.80;69.20;;;;;;5022893;28;20033;-65
2024/02/03 11:53:24;;;;;;;9.77;5.72;;;18.80;69.20;;;;;;5018611;28;20022;-64
2024/02/03 11:55:50;;;;;;;8.32;4.80;;;18.80;69.10;;;;;;5021809;28;20084;-66
2024/02/03 11:58:16;;;;;;;8.88;5.28;;;18.80;69.10;;;;;;5024655;28;20033;-65
2024/02/03 12:00:41;;;;;;;14.20;6.82;;;18.90;69.10;;;;;;5023506;28;20037;-66
2024/02/03 12:03:07;;;;;;;24.13;6.57;;;18.80;69.80;;;;;;5021191;28;20109;-68
2024/02/03 12:05:36;;;;;;;14.25;6.55;;;18.90;69.60;;;;;;5021033;28;20026;-66
2024/02/03 12:08:02;;;;;;;18.05;6.32;;;18.90;69.70;;;;;;5022424;28;20026;-67
2024/02/03 12:10:29;;;;;;;11.98;6.20;;;18.90;69.60;;;;;;5022209;28;20500;-68
2024/02/03 12:13:00;;;;;;;17.33;6.22;;;18.90;69.60;;;;;;5021093;28;20025;-67
2024/02/03 12:15:25;;;;;;;16.73;6.75;;;18.90;69.60;;;;;;5020287;28;20053;-68
2024/02/03 12:17:51;;;;;;;15.23;6.05;;;18.90;69.70;;;;;;5020958;28;20054;-65
2024/02/03 12:20:22;;;;;;;9.88;5.22;;;18.90;69.70;;;;;;5022901;28;20039;-62
2024/02/03 12:22:48;;;;;;;11.82;4.90;;;18.90;69.70;;;;;;5023035;28;20025;-68
2024/02/03 12:25:15;;;;;;;11.57;5.00;;;18.90;69.70;;;;;;5020975;28;20105;-65
2024/02/03 12:27:41;;;;;;;12.05;5.75;;;18.90;69.70;;;;;;5019802;28;20092;-67
2024/02/03 12:30:16;;;;;;;10.77;5.32;;;18.90;69.80;;;;;;5022982;28;20017;-68